sensor_id;sensor_type;location;lat;lon;timestamp;P1;durP1;ratioP1;P2;durP2;ratioP2
12635;SDS011;6383;50.830;7.210;2023-06-19T00:01:26;4.03;;;3.63;;
12635;SDS011;6383;50.830;7.210;2023-06-19T00:03:55;5.15;;;4.65;;
12635;SDS011;6383;50.830;7.210;2023-06-19T00:06:25;4.35;;;4.00;;
12635;SDS011;6383;50.830;7.210;2023-06-19T00:08:53;4.70;;;4.30;;
12635;SDS011;6383;50.830;7.210;2023-06-19T00:11:21;3.63;;;3.33;;
12635;SDS011;6383;50.830;7.210;2023-06-19T00:13:50;4.13;;;3.73;;
12635;SDS011;6383;50.830;7.210;2023-06-19T00:16:19;4.00;;;3.70;;
12635;SDS011;6383;50.830;7.210;2023-06-19T00:18:48;4.03;;;3.50;;
12635;SDS011;6383;50.830;7.210;2023-06-19T00:21:15;4.32;;;3.60;;
12635;SDS011;6383;50.830;7.210;2023-06-19T00:23:46;3.97;;;3.58;;
12635;SDS011;6383;50.830;7.210;2023-06-19T00:26:14;4.22;;;3.58;;
12635;SDS011;6383;50.830;7.210;2023-06-19T00:28:43;4.22;;;3.85;;
12635;SDS011;6383;50.830;7.210;2023-06-19T00:31:11;4.72;;;4.10;;
12635;SDS011;6383;50.830;7.210;2023-06-19T00:33:40;4.55;;;4.20;;
12635;SDS011;6383;50.830;7.210;2023-06-19T00:36:08;4.10;;;3.80;;
12635;SDS011;6383;50.830;7.210;2023-06-19T00:38:37;4.15;;;3.85;;
12635;SDS011;6383;50.830;7.210;2023-06-19T00:41:07;4.88;;;4.57;;
12635;SDS011;6383;50.830;7.210;2023-06-19T00:43:35;4.97;;;4.47;;
12635;SDS011;6383;50.830;7.210;2023-06-19T00:46:07;8.05;;;5.60;;
12635;SDS011;6383;50.830;7.210;2023-06-19T00:48:37;5.75;;;5.25;;
12635;SDS011;6383;50.830;7.210;2023-06-19T00:51:07;5.40;;;4.63;;
12635;SDS011;6383;50.830;7.210;2023-06-19T00:53:36;4.63;;;4.33;;
12635;SDS011;6383;50.830;7.210;2023-06-19T00:56:04;4.60;;;4.30;;
12635;SDS011;6383;50.830;7.210;2023-06-19T00:58:33;6.60;;;3.97;;
12635;SDS011;6383;50.830;7.210;2023-06-19T01:01:03;5.00;;;4.63;;
12635;SDS011;6383;50.830;7.210;2023-06-19T01:03:32;4.35;;;4.03;;
12635;SDS011;6383;50.830;7.210;2023-06-19T01:06:01;4.75;;;4.32;;
12635;SDS011;6383;50.830;7.210;2023-06-19T01:08:37;5.67;;;4.40;;
12635;SDS011;6383;50.830;7.210;2023-06-19T01:11:12;4.78;;;4.32;;
12635;SDS011;6383;50.830;7.210;2023-06-19T01:13:47;4.88;;;4.47;;
12635;SDS011;6383;50.830;7.210;2023-06-19T01:16:20;5.05;;;4.57;;
12635;SDS011;6383;50.830;7.210;2023-06-19T01:18:49;7.72;;;4.80;;
12635;SDS011;6383;50.830;7.210;2023-06-19T01:21:18;5.53;;;4.43;;
12635;SDS011;6383;50.830;7.210;2023-06-19T01:23:49;5.25;;;4.70;;
12635;SDS011;6383;50.830;7.210;2023-06-19T01:26:19;5.03;;;4.63;;
12635;SDS011;6383;50.830;7.210;2023-06-19T01:28:53;5.40;;;4.90;;
12635;SDS011;6383;50.830;7.210;2023-06-19T01:31:25;6.38;;;5.20;;
12635;SDS011;6383;50.830;7.210;2023-06-19T01:34:00;5.35;;;4.78;;
12635;SDS011;6383;50.830;7.210;2023-06-19T01:36:31;5.75;;;5.25;;
12635;SDS011;6383;50.830;7.210;2023-06-19T01:39:01;7.45;;;6.72;;
12635;SDS011;6383;50.830;7.210;2023-06-19T01:41:30;6.85;;;6.25;;
12635;SDS011;6383;50.830;7.210;2023-06-19T01:44:01;7.43;;;6.82;;
12635;SDS011;6383;50.830;7.210;2023-06-19T01:46:31;7.38;;;6.70;;
12635;SDS011;6383;50.830;7.210;2023-06-19T01:49:00;7.80;;;7.10;;
12635;SDS011;6383;50.830;7.210;2023-06-19T01:51:29;8.10;;;7.35;;
12635;SDS011;6383;50.830;7.210;2023-06-19T01:53:58;7.22;;;6.53;;
12635;SDS011;6383;50.830;7.210;2023-06-19T01:56:28;6.20;;;5.60;;
12635;SDS011;6383;50.830;7.210;2023-06-19T01:58:57;6.13;;;5.53;;
12635;SDS011;6383;50.830;7.210;2023-06-19T02:01:25;5.60;;;5.20;;
12635;SDS011;6383;50.830;7.210;2023-06-19T02:03:54;5.60;;;5.20;;
12635;SDS011;6383;50.830;7.210;2023-06-19T02:06:23;6.00;;;5.50;;
12635;SDS011;6383;50.830;7.210;2023-06-19T02:08:54;8.00;;;5.82;;
12635;SDS011;6383;50.830;7.210;2023-06-19T02:11:23;5.70;;;5.10;;
12635;SDS011;6383;50.830;7.210;2023-06-19T02:13:52;6.13;;;5.63;;
12635;SDS011;6383;50.830;7.210;2023-06-19T02:16:20;6.00;;;5.40;;
12635;SDS011;6383;50.830;7.210;2023-06-19T02:18:48;5.85;;;5.35;;
12635;SDS011;6383;50.830;7.210;2023-06-19T02:21:16;5.82;;;5.28;;
12635;SDS011;6383;50.830;7.210;2023-06-19T02:23:43;5.72;;;4.82;;
12635;SDS011;6383;50.830;7.210;2023-06-19T02:26:12;5.30;;;4.80;;
12635;SDS011;6383;50.830;7.210;2023-06-19T02:28:41;5.75;;;5.25;;
12635;SDS011;6383;50.830;7.210;2023-06-19T02:31:10;5.72;;;5.25;;
12635;SDS011;6383;50.830;7.210;2023-06-19T02:33:38;6.50;;;5.67;;
12635;SDS011;6383;50.830;7.210;2023-06-19T02:36:06;5.25;;;4.85;;
12635;SDS011;6383;50.830;7.210;2023-06-19T02:38:33;5.70;;;5.20;;
12635;SDS011;6383;50.830;7.210;2023-06-19T02:41:02;5.70;;;5.30;;
12635;SDS011;6383;50.830;7.210;2023-06-19T02:43:30;6.38;;;5.78;;
12635;SDS011;6383;50.830;7.210;2023-06-19T02:45:58;5.80;;;5.30;;
12635;SDS011;6383;50.830;7.210;2023-06-19T02:48:27;6.40;;;5.90;;
12635;SDS011;6383;50.830;7.210;2023-06-19T02:50:56;5.95;;;5.45;;
12635;SDS011;6383;50.830;7.210;2023-06-19T02:53:25;5.78;;;5.28;;
12635;SDS011;6383;50.830;7.210;2023-06-19T02:55:54;5.20;;;4.70;;
12635;SDS011;6383;50.830;7.210;2023-06-19T02:58:22;4.97;;;4.63;;
12635;SDS011;6383;50.830;7.210;2023-06-19T03:00:49;5.32;;;4.53;;
12635;SDS011;6383;50.830;7.210;2023-06-19T03:03:17;5.32;;;4.82;;
12635;SDS011;6383;50.830;7.210;2023-06-19T03:05:48;4.78;;;4.47;;
12635;SDS011;6383;50.830;7.210;2023-06-19T03:08:15;4.88;;;4.50;;
12635;SDS011;6383;50.830;7.210;2023-06-19T03:10:44;6.15;;;5.22;;
12635;SDS011;6383;50.830;7.210;2023-06-19T03:13:13;5.20;;;4.75;;
12635;SDS011;6383;50.830;7.210;2023-06-19T03:15:40;5.15;;;4.72;;
12635;SDS011;6383;50.830;7.210;2023-06-19T03:18:09;5.33;;;4.80;;
12635;SDS011;6383;50.830;7.210;2023-06-19T03:20:43;5.75;;;5.20;;
12635;SDS011;6383;50.830;7.210;2023-06-19T03:23:14;5.25;;;4.80;;
12635;SDS011;6383;50.830;7.210;2023-06-19T03:25:42;5.63;;;5.03;;
12635;SDS011;6383;50.830;7.210;2023-06-19T03:28:11;6.53;;;5.07;;
12635;SDS011;6383;50.830;7.210;2023-06-19T03:30:38;5.33;;;4.93;;
12635;SDS011;6383;50.830;7.210;2023-06-19T03:33:07;6.10;;;5.13;;
12635;SDS011;6383;50.830;7.210;2023-06-19T03:35:35;5.93;;;4.97;;
12635;SDS011;6383;50.830;7.210;2023-06-19T03:38:02;5.67;;;5.17;;
12635;SDS011;6383;50.830;7.210;2023-06-19T03:40:33;6.93;;;5.10;;
12635;SDS011;6383;50.830;7.210;2023-06-19T03:43:01;5.78;;;5.18;;
12635;SDS011;6383;50.830;7.210;2023-06-19T03:45:29;5.38;;;4.95;;
12635;SDS011;6383;50.830;7.210;2023-06-19T03:47:58;5.70;;;5.20;;
12635;SDS011;6383;50.830;7.210;2023-06-19T03:50:25;5.53;;;5.03;;
12635;SDS011;6383;50.830;7.210;2023-06-19T03:52:53;6.65;;;5.70;;
12635;SDS011;6383;50.830;7.210;2023-06-19T03:55:21;5.10;;;4.68;;
12635;SDS011;6383;50.830;7.210;2023-06-19T03:57:51;5.40;;;5.00;;
12635;SDS011;6383;50.830;7.210;2023-06-19T04:00:19;5.40;;;4.90;;
12635;SDS011;6383;50.830;7.210;2023-06-19T04:02:48;5.17;;;4.77;;
12635;SDS011;6383;50.830;7.210;2023-06-19T04:05:17;5.90;;;5.40;;
12635;SDS011;6383;50.830;7.210;2023-06-19T04:07:47;5.38;;;4.88;;
12635;SDS011;6383;50.830;7.210;2023-06-19T04:10:16;5.18;;;4.78;;
12635;SDS011;6383;50.830;7.210;2023-06-19T04:12:43;6.80;;;5.30;;
12635;SDS011;6383;50.830;7.210;2023-06-19T04:15:15;6.15;;;5.55;;
12635;SDS011;6383;50.830;7.210;2023-06-19T04:17:43;7.43;;;5.80;;
12635;SDS011;6383;50.830;7.210;2023-06-19T04:20:12;5.72;;;5.28;;
12635;SDS011;6383;50.830;7.210;2023-06-19T04:22:42;5.70;;;5.10;;
12635;SDS011;6383;50.830;7.210;2023-06-19T04:25:10;5.63;;;5.22;;
12635;SDS011;6383;50.830;7.210;2023-06-19T04:27:39;5.70;;;5.13;;
12635;SDS011;6383;50.830;7.210;2023-06-19T04:30:08;5.88;;;5.38;;
12635;SDS011;6383;50.830;7.210;2023-06-19T04:32:39;6.72;;;5.20;;
12635;SDS011;6383;50.830;7.210;2023-06-19T04:35:08;5.77;;;5.27;;
12635;SDS011;6383;50.830;7.210;2023-06-19T04:37:38;5.80;;;5.22;;
12635;SDS011;6383;50.830;7.210;2023-06-19T04:40:07;5.30;;;4.80;;
12635;SDS011;6383;50.830;7.210;2023-06-19T04:42:36;5.88;;;5.07;;
12635;SDS011;6383;50.830;7.210;2023-06-19T04:45:06;5.32;;;4.93;;
12635;SDS011;6383;50.830;7.210;2023-06-19T04:47:36;6.03;;;4.72;;
12635;SDS011;6383;50.830;7.210;2023-06-19T04:50:06;5.00;;;4.55;;
12635;SDS011;6383;50.830;7.210;2023-06-19T04:52:36;5.07;;;4.68;;
12635;SDS011;6383;50.830;7.210;2023-06-19T04:55:05;4.85;;;4.47;;
12635;SDS011;6383;50.830;7.210;2023-06-19T04:57:36;4.93;;;4.43;;
12635;SDS011;6383;50.830;7.210;2023-06-19T05:00:04;4.70;;;4.30;;
12635;SDS011;6383;50.830;7.210;2023-06-19T05:02:36;4.90;;;4.60;;
12635;SDS011;6383;50.830;7.210;2023-06-19T05:05:06;5.40;;;4.70;;
12635;SDS011;6383;50.830;7.210;2023-06-19T05:07:35;4.95;;;4.47;;
12635;SDS011;6383;50.830;7.210;2023-06-19T05:10:04;6.10;;;4.90;;
12635;SDS011;6383;50.830;7.210;2023-06-19T05:12:33;6.20;;;4.87;;
12635;SDS011;6383;50.830;7.210;2023-06-19T05:15:02;5.40;;;4.70;;
12635;SDS011;6383;50.830;7.210;2023-06-19T05:17:30;5.60;;;5.10;;
12635;SDS011;6383;50.830;7.210;2023-06-19T05:19:58;5.53;;;5.03;;
12635;SDS011;6383;50.830;7.210;2023-06-19T05:22:27;5.82;;;4.78;;
12635;SDS011;6383;50.830;7.210;2023-06-19T05:24:56;5.28;;;4.85;;
12635;SDS011;6383;50.830;7.210;2023-06-19T05:27:24;7.07;;;4.28;;
12635;SDS011;6383;50.830;7.210;2023-06-19T05:29:53;7.30;;;5.25;;
12635;SDS011;6383;50.830;7.210;2023-06-19T05:32:24;5.45;;;4.95;;
12635;SDS011;6383;50.830;7.210;2023-06-19T05:34:53;5.68;;;5.18;;
12635;SDS011;6383;50.830;7.210;2023-06-19T05:37:21;5.20;;;4.70;;
12635;SDS011;6383;50.830;7.210;2023-06-19T05:39:51;6.22;;;5.18;;
12635;SDS011;6383;50.830;7.210;2023-06-19T05:42:18;5.40;;;4.90;;
12635;SDS011;6383;50.830;7.210;2023-06-19T05:44:46;7.50;;;5.05;;
12635;SDS011;6383;50.830;7.210;2023-06-19T05:47:13;5.22;;;4.78;;
12635;SDS011;6383;50.830;7.210;2023-06-19T05:49:44;5.43;;;4.93;;
12635;SDS011;6383;50.830;7.210;2023-06-19T05:52:13;4.63;;;4.22;;
12635;SDS011;6383;50.830;7.210;2023-06-19T05:54:42;4.65;;;4.25;;
12635;SDS011;6383;50.830;7.210;2023-06-19T05:57:10;6.35;;;4.80;;
12635;SDS011;6383;50.830;7.210;2023-06-19T05:59:40;5.15;;;4.40;;
12635;SDS011;6383;50.830;7.210;2023-06-19T06:02:09;4.93;;;4.53;;
12635;SDS011;6383;50.830;7.210;2023-06-19T06:04:36;8.13;;;4.43;;
12635;SDS011;6383;50.830;7.210;2023-06-19T06:07:04;5.13;;;4.45;;
12635;SDS011;6383;50.830;7.210;2023-06-19T06:09:32;5.38;;;4.30;;
12635;SDS011;6383;50.830;7.210;2023-06-19T06:12:01;4.80;;;4.40;;
12635;SDS011;6383;50.830;7.210;2023-06-19T06:14:32;6.63;;;4.43;;
12635;SDS011;6383;50.830;7.210;2023-06-19T06:16:59;4.88;;;4.47;;
12635;SDS011;6383;50.830;7.210;2023-06-19T06:19:27;4.88;;;4.40;;
12635;SDS011;6383;50.830;7.210;2023-06-19T06:21:56;5.78;;;4.32;;
12635;SDS011;6383;50.830;7.210;2023-06-19T06:24:25;6.78;;;5.03;;
12635;SDS011;6383;50.830;7.210;2023-06-19T06:26:54;7.38;;;5.00;;
12635;SDS011;6383;50.830;7.210;2023-06-19T06:29:22;7.75;;;4.80;;
12635;SDS011;6383;50.830;7.210;2023-06-19T06:31:51;5.03;;;4.63;;
12635;SDS011;6383;50.830;7.210;2023-06-19T06:34:30;4.93;;;4.53;;
12635;SDS011;6383;50.830;7.210;2023-06-19T06:36:58;5.78;;;4.75;;
12635;SDS011;6383;50.830;7.210;2023-06-19T06:39:26;4.95;;;4.45;;
12635;SDS011;6383;50.830;7.210;2023-06-19T06:41:55;5.20;;;4.77;;
12635;SDS011;6383;50.830;7.210;2023-06-19T06:44:24;6.40;;;4.50;;
12635;SDS011;6383;50.830;7.210;2023-06-19T06:46:54;6.97;;;5.22;;
12635;SDS011;6383;50.830;7.210;2023-06-19T06:49:21;4.73;;;4.20;;
12635;SDS011;6383;50.830;7.210;2023-06-19T06:51:49;6.90;;;4.50;;
12635;SDS011;6383;50.830;7.210;2023-06-19T06:54:18;7.75;;;4.50;;
12635;SDS011;6383;50.830;7.210;2023-06-19T06:56:46;5.57;;;4.68;;
12635;SDS011;6383;50.830;7.210;2023-06-19T06:59:14;5.78;;;4.82;;
12635;SDS011;6383;50.830;7.210;2023-06-19T07:01:42;10.68;;;6.22;;
12635;SDS011;6383;50.830;7.210;2023-06-19T07:04:11;6.28;;;4.65;;
12635;SDS011;6383;50.830;7.210;2023-06-19T07:06:40;6.63;;;4.95;;
12635;SDS011;6383;50.830;7.210;2023-06-19T07:09:09;5.78;;;4.60;;
12635;SDS011;6383;50.830;7.210;2023-06-19T07:11:39;6.55;;;4.40;;
12635;SDS011;6383;50.830;7.210;2023-06-19T07:14:08;4.77;;;4.13;;
12635;SDS011;6383;50.830;7.210;2023-06-19T07:16:37;5.73;;;4.63;;
12635;SDS011;6383;50.830;7.210;2023-06-19T07:19:04;4.80;;;4.30;;
12635;SDS011;6383;50.830;7.210;2023-06-19T07:21:34;4.32;;;3.92;;
12635;SDS011;6383;50.830;7.210;2023-06-19T07:24:03;5.45;;;4.15;;
12635;SDS011;6383;50.830;7.210;2023-06-19T07:26:33;5.13;;;4.20;;
12635;SDS011;6383;50.830;7.210;2023-06-19T07:29:02;4.60;;;4.20;;
12635;SDS011;6383;50.830;7.210;2023-06-19T07:31:32;4.43;;;4.10;;
12635;SDS011;6383;50.830;7.210;2023-06-19T07:34:03;4.30;;;3.90;;
12635;SDS011;6383;50.830;7.210;2023-06-19T07:36:34;4.70;;;3.75;;
12635;SDS011;6383;50.830;7.210;2023-06-19T07:39:01;4.47;;;3.42;;
12635;SDS011;6383;50.830;7.210;2023-06-19T07:41:29;3.90;;;3.58;;
12635;SDS011;6383;50.830;7.210;2023-06-19T07:43:56;3.97;;;3.63;;
12635;SDS011;6383;50.830;7.210;2023-06-19T07:46:26;4.00;;;3.60;;
12635;SDS011;6383;50.830;7.210;2023-06-19T07:48:55;3.63;;;3.43;;
12635;SDS011;6383;50.830;7.210;2023-06-19T07:51:22;5.95;;;3.70;;
12635;SDS011;6383;50.830;7.210;2023-06-19T07:53:51;3.45;;;3.22;;
12635;SDS011;6383;50.830;7.210;2023-06-19T07:56:20;3.95;;;3.55;;
12635;SDS011;6383;50.830;7.210;2023-06-19T07:58:49;4.47;;;3.03;;
12635;SDS011;6383;50.830;7.210;2023-06-19T08:01:17;5.15;;;3.53;;
12635;SDS011;6383;50.830;7.210;2023-06-19T08:03:47;3.10;;;2.90;;
12635;SDS011;6383;50.830;7.210;2023-06-19T08:06:18;3.00;;;2.75;;
12635;SDS011;6383;50.830;7.210;2023-06-19T08:08:47;3.17;;;2.93;;
12635;SDS011;6383;50.830;7.210;2023-06-19T08:11:18;2.37;;;2.17;;
12635;SDS011;6383;50.830;7.210;2023-06-19T08:13:46;4.05;;;2.28;;
12635;SDS011;6383;50.830;7.210;2023-06-19T08:16:15;4.63;;;2.17;;
12635;SDS011;6383;50.830;7.210;2023-06-19T08:18:45;3.33;;;2.20;;
12635;SDS011;6383;50.830;7.210;2023-06-19T08:21:16;2.20;;;2.08;;
12635;SDS011;6383;50.830;7.210;2023-06-19T08:23:44;2.03;;;1.70;;
12635;SDS011;6383;50.830;7.210;2023-06-19T08:26:12;2.25;;;1.60;;
12635;SDS011;6383;50.830;7.210;2023-06-19T08:28:43;1.60;;;1.50;;
12635;SDS011;6383;50.830;7.210;2023-06-19T08:31:12;1.40;;;1.10;;
12635;SDS011;6383;50.830;7.210;2023-06-19T08:33:41;1.77;;;0.90;;
12635;SDS011;6383;50.830;7.210;2023-06-19T08:36:09;1.38;;;1.27;;
12635;SDS011;6383;50.830;7.210;2023-06-19T08:38:39;1.65;;;1.00;;
12635;SDS011;6383;50.830;7.210;2023-06-19T08:41:08;1.15;;;1.15;;
12635;SDS011;6383;50.830;7.210;2023-06-19T08:43:37;2.30;;;0.70;;
12635;SDS011;6383;50.830;7.210;2023-06-19T08:46:11;4.50;;;1.13;;
12635;SDS011;6383;50.830;7.210;2023-06-19T08:48:43;1.95;;;0.80;;
12635;SDS011;6383;50.830;7.210;2023-06-19T08:51:11;1.10;;;0.88;;
12635;SDS011;6383;50.830;7.210;2023-06-19T08:53:45;1.00;;;0.68;;
12635;SDS011;6383;50.830;7.210;2023-06-19T08:56:15;1.40;;;0.75;;
12635;SDS011;6383;50.830;7.210;2023-06-19T08:58:46;1.52;;;0.80;;
12635;SDS011;6383;50.830;7.210;2023-06-19T09:01:18;1.75;;;0.95;;
12635;SDS011;6383;50.830;7.210;2023-06-19T09:03:47;0.98;;;0.98;;
12635;SDS011;6383;50.830;7.210;2023-06-19T09:06:19;2.22;;;1.00;;
12635;SDS011;6383;50.830;7.210;2023-06-19T09:08:57;2.25;;;1.08;;
12635;SDS011;6383;50.830;7.210;2023-06-19T09:11:26;0.90;;;0.90;;
12635;SDS011;6383;50.830;7.210;2023-06-19T09:13:56;1.55;;;1.00;;
12635;SDS011;6383;50.830;7.210;2023-06-19T09:16:27;2.22;;;1.23;;
12635;SDS011;6383;50.830;7.210;2023-06-19T09:19:05;3.53;;;1.10;;
12635;SDS011;6383;50.830;7.210;2023-06-19T09:21:35;1.10;;;0.90;;
12635;SDS011;6383;50.830;7.210;2023-06-19T09:24:05;1.20;;;1.10;;
12635;SDS011;6383;50.830;7.210;2023-06-19T09:26:35;1.17;;;1.08;;
12635;SDS011;6383;50.830;7.210;2023-06-19T09:29:10;0.95;;;0.90;;
12635;SDS011;6383;50.830;7.210;2023-06-19T09:31:41;1.50;;;1.40;;
12635;SDS011;6383;50.830;7.210;2023-06-19T09:34:10;1.80;;;1.20;;
12635;SDS011;6383;50.830;7.210;2023-06-19T09:36:38;1.75;;;1.15;;
12635;SDS011;6383;50.830;7.210;2023-06-19T09:39:08;1.70;;;1.48;;
12635;SDS011;6383;50.830;7.210;2023-06-19T09:41:38;2.60;;;1.35;;
12635;SDS011;6383;50.830;7.210;2023-06-19T09:44:10;1.38;;;1.27;;
12635;SDS011;6383;50.830;7.210;2023-06-19T09:46:46;1.65;;;1.52;;
12635;SDS011;6383;50.830;7.210;2023-06-19T09:49:18;1.45;;;1.35;;
12635;SDS011;6383;50.830;7.210;2023-06-19T09:51:50;3.25;;;1.33;;
12635;SDS011;6383;50.830;7.210;2023-06-19T09:54:20;2.13;;;1.30;;
12635;SDS011;6383;50.830;7.210;2023-06-19T09:56:50;1.70;;;1.60;;
12635;SDS011;6383;50.830;7.210;2023-06-19T09:59:23;4.25;;;1.60;;
12635;SDS011;6383;50.830;7.210;2023-06-19T10:01:55;1.83;;;1.33;;
12635;SDS011;6383;50.830;7.210;2023-06-19T10:04:25;2.33;;;1.73;;
12635;SDS011;6383;50.830;7.210;2023-06-19T10:06:55;2.35;;;1.70;;
12635;SDS011;6383;50.830;7.210;2023-06-19T10:09:32;1.88;;;1.60;;
12635;SDS011;6383;50.830;7.210;2023-06-19T10:12:01;2.07;;;1.60;;
12635;SDS011;6383;50.830;7.210;2023-06-19T10:14:44;2.58;;;1.67;;
12635;SDS011;6383;50.830;7.210;2023-06-19T10:17:17;2.42;;;1.60;;
12635;SDS011;6383;50.830;7.210;2023-06-19T10:19:49;1.93;;;1.83;;
12635;SDS011;6383;50.830;7.210;2023-06-19T10:22:19;4.13;;;1.90;;
12635;SDS011;6383;50.830;7.210;2023-06-19T10:24:51;2.83;;;2.15;;
12635;SDS011;6383;50.830;7.210;2023-06-19T10:27:20;2.90;;;1.80;;
12635;SDS011;6383;50.830;7.210;2023-06-19T10:29:52;2.10;;;1.90;;
12635;SDS011;6383;50.830;7.210;2023-06-19T10:32:21;3.20;;;2.03;;
12635;SDS011;6383;50.830;7.210;2023-06-19T10:34:50;1.77;;;1.67;;
12635;SDS011;6383;50.830;7.210;2023-06-19T10:37:20;2.42;;;2.13;;
12635;SDS011;6383;50.830;7.210;2023-06-19T10:40:00;2.05;;;1.95;;
12635;SDS011;6383;50.830;7.210;2023-06-19T10:42:30;1.90;;;1.77;;
12635;SDS011;6383;50.830;7.210;2023-06-19T10:45:02;2.17;;;1.95;;
12635;SDS011;6383;50.830;7.210;2023-06-19T10:47:34;2.13;;;1.92;;
12635;SDS011;6383;50.830;7.210;2023-06-19T10:50:04;2.30;;;2.20;;
12635;SDS011;6383;50.830;7.210;2023-06-19T10:52:33;2.10;;;2.00;;
12635;SDS011;6383;50.830;7.210;2023-06-19T10:55:03;2.83;;;2.00;;
12635;SDS011;6383;50.830;7.210;2023-06-19T10:57:32;2.28;;;1.90;;
12635;SDS011;6383;50.830;7.210;2023-06-19T11:00:02;3.45;;;2.00;;
12635;SDS011;6383;50.830;7.210;2023-06-19T11:02:40;2.47;;;2.25;;
12635;SDS011;6383;50.830;7.210;2023-06-19T11:05:09;2.67;;;2.00;;
12635;SDS011;6383;50.830;7.210;2023-06-19T11:07:39;2.67;;;2.00;;
12635;SDS011;6383;50.830;7.210;2023-06-19T11:10:08;3.63;;;2.15;;
12635;SDS011;6383;50.830;7.210;2023-06-19T11:12:47;2.63;;;2.25;;
12635;SDS011;6383;50.830;7.210;2023-06-19T11:15:17;4.10;;;2.25;;
12635;SDS011;6383;50.830;7.210;2023-06-19T11:17:47;2.38;;;2.17;;
12635;SDS011;6383;50.830;7.210;2023-06-19T11:20:16;2.50;;;2.17;;
12635;SDS011;6383;50.830;7.210;2023-06-19T11:22:46;2.37;;;2.13;;
12635;SDS011;6383;50.830;7.210;2023-06-19T11:25:15;2.37;;;2.17;;
12635;SDS011;6383;50.830;7.210;2023-06-19T11:27:44;7.05;;;2.42;;
12635;SDS011;6383;50.830;7.210;2023-06-19T11:30:19;4.47;;;2.30;;
12635;SDS011;6383;50.830;7.210;2023-06-19T11:33:01;3.65;;;2.00;;
12635;SDS011;6383;50.830;7.210;2023-06-19T11:35:36;3.42;;;2.50;;
12635;SDS011;6383;50.830;7.210;2023-06-19T11:38:05;2.67;;;2.17;;
12635;SDS011;6383;50.830;7.210;2023-06-19T11:40:40;2.00;;;1.90;;
12635;SDS011;6383;50.830;7.210;2023-06-19T11:43:09;3.00;;;2.05;;
12635;SDS011;6383;50.830;7.210;2023-06-19T11:45:45;2.97;;;2.28;;
12635;SDS011;6383;50.830;7.210;2023-06-19T11:48:22;2.30;;;2.20;;
12635;SDS011;6383;50.830;7.210;2023-06-19T11:50:52;2.13;;;1.90;;
12635;SDS011;6383;50.830;7.210;2023-06-19T11:53:22;3.75;;;1.95;;
12635;SDS011;6383;50.830;7.210;2023-06-19T11:55:52;3.58;;;2.00;;
12635;SDS011;6383;50.830;7.210;2023-06-19T11:58:21;5.00;;;2.25;;
12635;SDS011;6383;50.830;7.210;2023-06-19T12:00:49;3.40;;;2.15;;
12635;SDS011;6383;50.830;7.210;2023-06-19T12:03:19;2.42;;;2.15;;
12635;SDS011;6383;50.830;7.210;2023-06-19T12:05:49;2.47;;;2.10;;
12635;SDS011;6383;50.830;7.210;2023-06-19T12:08:18;5.43;;;2.33;;
12635;SDS011;6383;50.830;7.210;2023-06-19T12:10:48;6.00;;;2.60;;
12635;SDS011;6383;50.830;7.210;2023-06-19T12:13:21;2.77;;;2.50;;
12635;SDS011;6383;50.830;7.210;2023-06-19T12:15:51;3.37;;;2.27;;
12635;SDS011;6383;50.830;7.210;2023-06-19T12:18:20;3.13;;;2.60;;
12635;SDS011;6383;50.830;7.210;2023-06-19T12:20:51;2.67;;;2.13;;
12635;SDS011;6383;50.830;7.210;2023-06-19T12:23:20;2.50;;;2.30;;
12635;SDS011;6383;50.830;7.210;2023-06-19T12:25:50;2.53;;;2.33;;
12635;SDS011;6383;50.830;7.210;2023-06-19T12:28:18;4.18;;;2.72;;
12635;SDS011;6383;50.830;7.210;2023-06-19T12:30:48;2.97;;;2.33;;
12635;SDS011;6383;50.830;7.210;2023-06-19T12:33:20;2.28;;;2.08;;
12635;SDS011;6383;50.830;7.210;2023-06-19T12:35:50;2.88;;;2.20;;
12635;SDS011;6383;50.830;7.210;2023-06-19T12:38:20;4.53;;;2.33;;
12635;SDS011;6383;50.830;7.210;2023-06-19T12:40:49;3.75;;;2.90;;
12635;SDS011;6383;50.830;7.210;2023-06-19T12:43:17;2.97;;;2.40;;
12635;SDS011;6383;50.830;7.210;2023-06-19T12:45:45;4.63;;;2.30;;
12635;SDS011;6383;50.830;7.210;2023-06-19T12:48:13;3.15;;;2.30;;
12635;SDS011;6383;50.830;7.210;2023-06-19T12:50:42;5.00;;;2.60;;
12635;SDS011;6383;50.830;7.210;2023-06-19T12:53:15;3.47;;;2.30;;
12635;SDS011;6383;50.830;7.210;2023-06-19T12:55:44;2.27;;;2.13;;
12635;SDS011;6383;50.830;7.210;2023-06-19T12:58:13;4.88;;;2.60;;
12635;SDS011;6383;50.830;7.210;2023-06-19T13:00:45;3.50;;;2.78;;
12635;SDS011;6383;50.830;7.210;2023-06-19T13:03:14;4.20;;;2.70;;
12635;SDS011;6383;50.830;7.210;2023-06-19T13:05:47;3.50;;;2.72;;
12635;SDS011;6383;50.830;7.210;2023-06-19T13:08:18;3.10;;;2.90;;
12635;SDS011;6383;50.830;7.210;2023-06-19T13:10:47;2.92;;;2.72;;
12635;SDS011;6383;50.830;7.210;2023-06-19T13:13:16;4.72;;;2.90;;
12635;SDS011;6383;50.830;7.210;2023-06-19T13:15:44;3.53;;;2.60;;
12635;SDS011;6383;50.830;7.210;2023-06-19T13:18:13;3.63;;;2.85;;
12635;SDS011;6383;50.830;7.210;2023-06-19T13:20:42;3.33;;;2.67;;
12635;SDS011;6383;50.830;7.210;2023-06-19T13:23:12;3.47;;;2.28;;
12635;SDS011;6383;50.830;7.210;2023-06-19T13:25:43;3.10;;;2.38;;
12635;SDS011;6383;50.830;7.210;2023-06-19T13:28:12;4.32;;;2.63;;
12635;SDS011;6383;50.830;7.210;2023-06-19T13:30:41;5.38;;;2.80;;
12635;SDS011;6383;50.830;7.210;2023-06-19T13:33:09;5.03;;;2.50;;
12635;SDS011;6383;50.830;7.210;2023-06-19T13:35:39;3.97;;;2.42;;
12635;SDS011;6383;50.830;7.210;2023-06-19T13:38:06;3.47;;;2.30;;
12635;SDS011;6383;50.830;7.210;2023-06-19T13:40:34;5.00;;;2.35;;
12635;SDS011;6383;50.830;7.210;2023-06-19T13:43:05;3.95;;;2.70;;
12635;SDS011;6383;50.830;7.210;2023-06-19T13:45:33;4.22;;;2.50;;
12635;SDS011;6383;50.830;7.210;2023-06-19T13:48:02;3.95;;;2.42;;
12635;SDS011;6383;50.830;7.210;2023-06-19T13:50:30;5.75;;;2.70;;
12635;SDS011;6383;50.830;7.210;2023-06-19T13:53:00;2.67;;;2.47;;
12635;SDS011;6383;50.830;7.210;2023-06-19T13:55:30;3.38;;;2.42;;
12635;SDS011;6383;50.830;7.210;2023-06-19T13:57:59;3.77;;;2.50;;
12635;SDS011;6383;50.830;7.210;2023-06-19T14:00:27;3.03;;;2.28;;
12635;SDS011;6383;50.830;7.210;2023-06-19T14:02:56;2.78;;;2.58;;
12635;SDS011;6383;50.830;7.210;2023-06-19T14:05:25;4.38;;;2.67;;
12635;SDS011;6383;50.830;7.210;2023-06-19T14:07:54;2.75;;;2.55;;
12635;SDS011;6383;50.830;7.210;2023-06-19T14:10:22;2.53;;;2.22;;
12635;SDS011;6383;50.830;7.210;2023-06-19T14:12:50;2.97;;;2.50;;
12635;SDS011;6383;50.830;7.210;2023-06-19T14:15:18;4.55;;;2.20;;
12635;SDS011;6383;50.830;7.210;2023-06-19T14:17:47;2.30;;;2.10;;
12635;SDS011;6383;50.830;7.210;2023-06-19T14:20:16;8.25;;;2.60;;
12635;SDS011;6383;50.830;7.210;2023-06-19T14:22:46;2.17;;;2.08;;
12635;SDS011;6383;50.830;7.210;2023-06-19T14:25:18;6.15;;;2.58;;
12635;SDS011;6383;50.830;7.210;2023-06-19T14:28:17;4.80;;;2.45;;
12635;SDS011;6383;50.830;7.210;2023-06-19T14:30:46;3.50;;;2.67;;
12635;SDS011;6383;50.830;7.210;2023-06-19T14:33:17;2.53;;;2.43;;
12635;SDS011;6383;50.830;7.210;2023-06-19T14:35:47;4.18;;;2.50;;
12635;SDS011;6383;50.830;7.210;2023-06-19T14:38:14;5.97;;;2.40;;
12635;SDS011;6383;50.830;7.210;2023-06-19T14:40:43;2.20;;;2.10;;
12635;SDS011;6383;50.830;7.210;2023-06-19T14:43:12;3.90;;;2.10;;
12635;SDS011;6383;50.830;7.210;2023-06-19T14:45:41;4.40;;;2.20;;
12635;SDS011;6383;50.830;7.210;2023-06-19T14:48:10;2.50;;;2.30;;
12635;SDS011;6383;50.830;7.210;2023-06-19T14:50:39;4.60;;;2.17;;
12635;SDS011;6383;50.830;7.210;2023-06-19T14:53:09;3.63;;;2.20;;
12635;SDS011;6383;50.830;7.210;2023-06-19T14:55:36;2.03;;;1.92;;
12635;SDS011;6383;50.830;7.210;2023-06-19T14:58:05;4.50;;;2.10;;
12635;SDS011;6383;50.830;7.210;2023-06-19T15:00:34;2.03;;;1.90;;
12635;SDS011;6383;50.830;7.210;2023-06-19T15:03:04;32.35;;;4.70;;
12635;SDS011;6383;50.830;7.210;2023-06-19T15:05:33;2.65;;;2.22;;
12635;SDS011;6383;50.830;7.210;2023-06-19T15:08:02;3.17;;;2.10;;
12635;SDS011;6383;50.830;7.210;2023-06-19T15:10:32;3.08;;;2.50;;
12635;SDS011;6383;50.830;7.210;2023-06-19T15:13:01;16.45;;;3.33;;
12635;SDS011;6383;50.830;7.210;2023-06-19T15:15:30;6.88;;;2.65;;